Terminal Aerodrome Forecast
Issued by NWS

Home | Current Version | Previous Version | Text Only | Print | Product List | Glossary On
Versions: 1 2 3 4 5 6 7 8 9 10 11 12 13 14 15
151
FTUS46 KSEW 111724
TAFHQM
TAF
KHQM 111724Z 1118/1218 07009KT 6SM -RA BR OVC070
     FM120000 08012KT 4SM -RA BR OVC030
     FM120900 12010KT 4SM -RA BR OVC025
     FM121400 17010KT 4SM -RA BR OVC015=

USA.gov is the U.S. government's official web portal to all federal, state and local government web resources and services.